sensor_id;sensor_type;location;lat;lon;timestamp;temperature;humidity
10980;DHT22;5543;51.734;8.744;2023-06-04T00:00:55;8.90;98.70
10980;DHT22;5543;51.734;8.744;2023-06-04T00:03:24;8.90;99.30
10980;DHT22;5543;51.734;8.744;2023-06-04T00:05:54;8.90;99.90
10980;DHT22;5543;51.734;8.744;2023-06-04T00:08:22;8.90;99.90
10980;DHT22;5543;51.734;8.744;2023-06-04T00:10:50;8.90;99.90
10980;DHT22;5543;51.734;8.744;2023-06-04T00:13:19;8.90;99.90
10980;DHT22;5543;51.734;8.744;2023-06-04T00:15:47;8.80;99.90
10980;DHT22;5543;51.734;8.744;2023-06-04T00:18:15;8.80;99.90
10980;DHT22;5543;51.734;8.744;2023-06-04T00:20:43;8.80;99.90
10980;DHT22;5543;51.734;8.744;2023-06-04T00:23:12;8.70;99.90
10980;DHT22;5543;51.734;8.744;2023-06-04T00:25:41;8.70;99.90
10980;DHT22;5543;51.734;8.744;2023-06-04T00:28:09;8.60;99.90
10980;DHT22;5543;51.734;8.744;2023-06-04T00:30:37;8.60;99.90
10980;DHT22;5543;51.734;8.744;2023-06-04T00:33:05;8.60;99.90
10980;DHT22;5543;51.734;8.744;2023-06-04T00:35:33;8.50;99.90
10980;DHT22;5543;51.734;8.744;2023-06-04T00:38:01;8.40;99.90
10980;DHT22;5543;51.734;8.744;2023-06-04T00:40:30;8.60;99.90
10980;DHT22;5543;51.734;8.744;2023-06-04T00:42:58;8.40;99.90
10980;DHT22;5543;51.734;8.744;2023-06-04T00:45:26;8.40;99.90
10980;DHT22;5543;51.734;8.744;2023-06-04T00:47:58;8.30;99.90
10980;DHT22;5543;51.734;8.744;2023-06-04T00:50:27;8.60;99.90
10980;DHT22;5543;51.734;8.744;2023-06-04T00:52:55;8.40;99.90
10980;DHT22;5543;51.734;8.744;2023-06-04T00:55:24;8.30;99.90
10980;DHT22;5543;51.734;8.744;2023-06-04T00:57:53;8.30;99.90
10980;DHT22;5543;51.734;8.744;2023-06-04T01:00:22;8.30;99.90
10980;DHT22;5543;51.734;8.744;2023-06-04T01:02:51;8.30;99.90
10980;DHT22;5543;51.734;8.744;2023-06-04T01:05:26;8.30;99.90
10980;DHT22;5543;51.734;8.744;2023-06-04T01:08:00;8.30;99.90
10980;DHT22;5543;51.734;8.744;2023-06-04T01:10:28;8.10;99.90
10980;DHT22;5543;51.734;8.744;2023-06-04T01:12:58;8.20;99.90
10980;DHT22;5543;51.734;8.744;2023-06-04T01:15:26;8.20;99.90
10980;DHT22;5543;51.734;8.744;2023-06-04T01:17:58;8.10;99.90
10980;DHT22;5543;51.734;8.744;2023-06-04T01:20:34;8.00;99.90
10980;DHT22;5543;51.734;8.744;2023-06-04T01:23:14;8.10;99.90
10980;DHT22;5543;51.734;8.744;2023-06-04T01:25:43;8.00;99.90
10980;DHT22;5543;51.734;8.744;2023-06-04T01:28:17;8.00;99.90
10980;DHT22;5543;51.734;8.744;2023-06-04T01:30:47;8.00;99.90
10980;DHT22;5543;51.734;8.744;2023-06-04T01:33:19;8.10;99.90
10980;DHT22;5543;51.734;8.744;2023-06-04T01:35:47;8.00;99.90
10980;DHT22;5543;51.734;8.744;2023-06-04T01:38:15;8.00;99.90
10980;DHT22;5543;51.734;8.744;2023-06-04T01:40:44;7.90;99.90
10980;DHT22;5543;51.734;8.744;2023-06-04T01:43:12;7.90;99.90
10980;DHT22;5543;51.734;8.744;2023-06-04T01:45:42;7.80;99.90
10980;DHT22;5543;51.734;8.744;2023-06-04T01:48:10;7.70;99.90
10980;DHT22;5543;51.734;8.744;2023-06-04T01:50:38;7.90;99.90
10980;DHT22;5543;51.734;8.744;2023-06-04T01:53:07;7.70;99.90
10980;DHT22;5543;51.734;8.744;2023-06-04T01:55:35;7.80;99.90
10980;DHT22;5543;51.734;8.744;2023-06-04T01:58:04;7.70;99.90
10980;DHT22;5543;51.734;8.744;2023-06-04T02:00:33;7.70;99.90
10980;DHT22;5543;51.734;8.744;2023-06-04T02:03:03;7.70;99.90
10980;DHT22;5543;51.734;8.744;2023-06-04T02:05:31;7.80;99.90
10980;DHT22;5543;51.734;8.744;2023-06-04T02:08:00;7.50;99.90
10980;DHT22;5543;51.734;8.744;2023-06-04T02:10:28;7.40;99.90
10980;DHT22;5543;51.734;8.744;2023-06-04T02:12:58;7.40;99.90
10980;DHT22;5543;51.734;8.744;2023-06-04T02:15:27;7.30;99.90
10980;DHT22;5543;51.734;8.744;2023-06-04T02:17:57;7.20;99.90
10980;DHT22;5543;51.734;8.744;2023-06-04T02:20:28;7.30;99.90
10980;DHT22;5543;51.734;8.744;2023-06-04T02:22:56;7.20;99.90
10980;DHT22;5543;51.734;8.744;2023-06-04T02:25:24;7.20;99.90
10980;DHT22;5543;51.734;8.744;2023-06-04T02:27:53;7.20;99.90
10980;DHT22;5543;51.734;8.744;2023-06-04T02:30:21;7.20;99.90
10980;DHT22;5543;51.734;8.744;2023-06-04T02:32:49;7.20;99.90
10980;DHT22;5543;51.734;8.744;2023-06-04T02:35:19;7.20;99.90
10980;DHT22;5543;51.734;8.744;2023-06-04T02:37:49;7.20;99.90
10980;DHT22;5543;51.734;8.744;2023-06-04T02:40:17;7.20;99.90
10980;DHT22;5543;51.734;8.744;2023-06-04T02:42:45;7.20;99.90
10980;DHT22;5543;51.734;8.744;2023-06-04T02:45:13;7.20;99.90
10980;DHT22;5543;51.734;8.744;2023-06-04T02:47:42;7.10;99.90
10980;DHT22;5543;51.734;8.744;2023-06-04T02:50:10;7.10;99.90
10980;DHT22;5543;51.734;8.744;2023-06-04T02:52:39;7.10;99.90
10980;DHT22;5543;51.734;8.744;2023-06-04T02:55:11;7.00;99.90
10980;DHT22;5543;51.734;8.744;2023-06-04T02:57:40;7.00;99.90
10980;DHT22;5543;51.734;8.744;2023-06-04T03:00:10;7.00;99.90
10980;DHT22;5543;51.734;8.744;2023-06-04T03:02:41;7.00;99.90
10980;DHT22;5543;51.734;8.744;2023-06-04T03:05:11;7.30;99.90
10980;DHT22;5543;51.734;8.744;2023-06-04T03:07:41;7.00;99.90
10980;DHT22;5543;51.734;8.744;2023-06-04T03:10:12;7.00;99.90
10980;DHT22;5543;51.734;8.744;2023-06-04T03:12:40;7.00;99.90
10980;DHT22;5543;51.734;8.744;2023-06-04T03:15:09;6.90;99.90
10980;DHT22;5543;51.734;8.744;2023-06-04T03:17:37;6.90;99.90
10980;DHT22;5543;51.734;8.744;2023-06-04T03:20:06;7.00;99.90
10980;DHT22;5543;51.734;8.744;2023-06-04T03:22:36;6.90;99.90
10980;DHT22;5543;51.734;8.744;2023-06-04T03:25:05;6.90;99.90
10980;DHT22;5543;51.734;8.744;2023-06-04T03:27:34;6.80;99.90
10980;DHT22;5543;51.734;8.744;2023-06-04T03:30:03;6.80;99.90
10980;DHT22;5543;51.734;8.744;2023-06-04T03:32:31;6.80;99.90
10980;DHT22;5543;51.734;8.744;2023-06-04T03:35:00;6.90;99.90
10980;DHT22;5543;51.734;8.744;2023-06-04T03:37:28;6.60;99.90
10980;DHT22;5543;51.734;8.744;2023-06-04T03:39:56;6.80;99.90
10980;DHT22;5543;51.734;8.744;2023-06-04T03:42:24;6.80;99.90
10980;DHT22;5543;51.734;8.744;2023-06-04T03:44:54;6.80;99.90
10980;DHT22;5543;51.734;8.744;2023-06-04T03:47:24;6.70;99.90
10980;DHT22;5543;51.734;8.744;2023-06-04T03:49:52;6.70;99.90
10980;DHT22;5543;51.734;8.744;2023-06-04T03:52:21;6.70;99.90
10980;DHT22;5543;51.734;8.744;2023-06-04T03:54:49;6.70;99.90
10980;DHT22;5543;51.734;8.744;2023-06-04T03:57:17;6.60;99.90
10980;DHT22;5543;51.734;8.744;2023-06-04T03:59:45;7.00;99.90
10980;DHT22;5543;51.734;8.744;2023-06-04T04:02:14;6.80;99.90
10980;DHT22;5543;51.734;8.744;2023-06-04T04:04:44;7.20;99.90
10980;DHT22;5543;51.734;8.744;2023-06-04T04:07:12;6.80;99.90
10980;DHT22;5543;51.734;8.744;2023-06-04T04:09:40;6.90;99.90
10980;DHT22;5543;51.734;8.744;2023-06-04T04:12:08;6.90;99.90
10980;DHT22;5543;51.734;8.744;2023-06-04T04:14:36;6.90;99.90
10980;DHT22;5543;51.734;8.744;2023-06-04T04:17:05;7.00;99.90
10980;DHT22;5543;51.734;8.744;2023-06-04T04:19:35;7.00;99.90
10980;DHT22;5543;51.734;8.744;2023-06-04T04:22:03;7.10;99.90
10980;DHT22;5543;51.734;8.744;2023-06-04T04:24:32;7.30;99.90
10980;DHT22;5543;51.734;8.744;2023-06-04T04:27:04;7.20;99.90
10980;DHT22;5543;51.734;8.744;2023-06-04T04:29:32;7.30;99.90
10980;DHT22;5543;51.734;8.744;2023-06-04T04:32:02;7.30;99.90
10980;DHT22;5543;51.734;8.744;2023-06-04T04:34:38;7.30;99.90
10980;DHT22;5543;51.734;8.744;2023-06-04T04:37:06;7.40;99.90
10980;DHT22;5543;51.734;8.744;2023-06-04T04:39:36;7.50;99.90
10980;DHT22;5543;51.734;8.744;2023-06-04T04:42:04;7.80;99.90
10980;DHT22;5543;51.734;8.744;2023-06-04T04:44:33;7.70;99.90
10980;DHT22;5543;51.734;8.744;2023-06-04T04:47:01;7.70;99.90
10980;DHT22;5543;51.734;8.744;2023-06-04T04:49:29;7.60;99.90
10980;DHT22;5543;51.734;8.744;2023-06-04T04:51:59;8.00;99.90
10980;DHT22;5543;51.734;8.744;2023-06-04T04:54:27;8.00;99.90
10980;DHT22;5543;51.734;8.744;2023-06-04T04:56:55;8.00;99.90
10980;DHT22;5543;51.734;8.744;2023-06-04T04:59:38;8.20;99.90
10980;DHT22;5543;51.734;8.744;2023-06-04T05:02:07;8.40;99.90
10980;DHT22;5543;51.734;8.744;2023-06-04T05:04:35;8.60;99.90
10980;DHT22;5543;51.734;8.744;2023-06-04T05:07:04;8.40;99.90
10980;DHT22;5543;51.734;8.744;2023-06-04T05:09:33;8.90;99.90
10980;DHT22;5543;51.734;8.744;2023-06-04T05:12:01;8.50;99.90
10980;DHT22;5543;51.734;8.744;2023-06-04T05:14:29;8.60;99.90
10980;DHT22;5543;51.734;8.744;2023-06-04T05:16:58;8.70;99.90
10980;DHT22;5543;51.734;8.744;2023-06-04T05:19:26;9.10;99.90
10980;DHT22;5543;51.734;8.744;2023-06-04T05:21:54;8.90;99.90
10980;DHT22;5543;51.734;8.744;2023-06-04T05:24:23;9.00;99.90
10980;DHT22;5543;51.734;8.744;2023-06-04T05:26:52;9.10;99.90
10980;DHT22;5543;51.734;8.744;2023-06-04T05:29:21;9.50;99.90
10980;DHT22;5543;51.734;8.744;2023-06-04T05:31:50;9.30;99.90
10980;DHT22;5543;51.734;8.744;2023-06-04T05:34:18;9.40;99.90
10980;DHT22;5543;51.734;8.744;2023-06-04T05:36:48;9.40;99.90
10980;DHT22;5543;51.734;8.744;2023-06-04T05:39:16;9.60;99.90
10980;DHT22;5543;51.734;8.744;2023-06-04T05:41:46;9.70;99.90
10980;DHT22;5543;51.734;8.744;2023-06-04T05:44:14;9.80;99.90
10980;DHT22;5543;51.734;8.744;2023-06-04T05:46:43;9.90;99.90
10980;DHT22;5543;51.734;8.744;2023-06-04T05:49:11;10.30;99.90
10980;DHT22;5543;51.734;8.744;2023-06-04T05:51:39;10.20;99.90
10980;DHT22;5543;51.734;8.744;2023-06-04T05:54:07;10.50;99.90
10980;DHT22;5543;51.734;8.744;2023-06-04T05:56:35;10.40;99.90
10980;DHT22;5543;51.734;8.744;2023-06-04T05:59:05;10.50;99.90
10980;DHT22;5543;51.734;8.744;2023-06-04T06:01:33;10.90;99.90
10980;DHT22;5543;51.734;8.744;2023-06-04T06:04:01;10.80;99.90
10980;DHT22;5543;51.734;8.744;2023-06-04T06:06:30;10.90;99.90
10980;DHT22;5543;51.734;8.744;2023-06-04T06:08:58;11.10;99.90
10980;DHT22;5543;51.734;8.744;2023-06-04T06:11:26;11.20;99.90
10980;DHT22;5543;51.734;8.744;2023-06-04T06:13:54;11.40;99.90
10980;DHT22;5543;51.734;8.744;2023-06-04T06:16:24;11.50;99.90
10980;DHT22;5543;51.734;8.744;2023-06-04T06:18:52;11.90;99.90
10980;DHT22;5543;51.734;8.744;2023-06-04T06:21:21;11.70;99.90
10980;DHT22;5543;51.734;8.744;2023-06-04T06:23:49;11.90;99.90
10980;DHT22;5543;51.734;8.744;2023-06-04T06:26:17;12.10;99.90
10980;DHT22;5543;51.734;8.744;2023-06-04T06:28:47;12.20;99.90
10980;DHT22;5543;51.734;8.744;2023-06-04T06:31:15;12.40;99.90
10980;DHT22;5543;51.734;8.744;2023-06-04T06:33:44;12.60;99.90
10980;DHT22;5543;51.734;8.744;2023-06-04T06:36:12;12.80;99.90
10980;DHT22;5543;51.734;8.744;2023-06-04T06:38:42;13.00;99.90
10980;DHT22;5543;51.734;8.744;2023-06-04T06:41:10;13.20;99.90
10980;DHT22;5543;51.734;8.744;2023-06-04T06:43:38;13.20;99.90
10980;DHT22;5543;51.734;8.744;2023-06-04T06:46:06;13.50;99.90
10980;DHT22;5543;51.734;8.744;2023-06-04T06:48:34;13.70;99.90
10980;DHT22;5543;51.734;8.744;2023-06-04T06:51:04;13.80;99.40
10980;DHT22;5543;51.734;8.744;2023-06-04T06:53:33;14.00;99.10
10980;DHT22;5543;51.734;8.744;2023-06-04T06:56:01;14.20;98.70
10980;DHT22;5543;51.734;8.744;2023-06-04T06:58:29;14.40;98.10
10980;DHT22;5543;51.734;8.744;2023-06-04T07:00:57;14.60;97.50
10980;DHT22;5543;51.734;8.744;2023-06-04T07:03:25;14.80;97.20
10980;DHT22;5543;51.734;8.744;2023-06-04T07:05:53;15.00;96.80
10980;DHT22;5543;51.734;8.744;2023-06-04T07:08:23;15.20;96.60
10980;DHT22;5543;51.734;8.744;2023-06-04T07:10:51;15.40;95.80
10980;DHT22;5543;51.734;8.744;2023-06-04T07:13:19;15.50;95.50
10980;DHT22;5543;51.734;8.744;2023-06-04T07:15:47;15.70;95.20
10980;DHT22;5543;51.734;8.744;2023-06-04T07:18:15;15.90;95.20
10980;DHT22;5543;51.734;8.744;2023-06-04T07:20:43;16.10;94.80
10980;DHT22;5543;51.734;8.744;2023-06-04T07:23:11;16.30;94.80
10980;DHT22;5543;51.734;8.744;2023-06-04T07:25:41;16.40;94.30
10980;DHT22;5543;51.734;8.744;2023-06-04T07:28:09;16.60;93.80
10980;DHT22;5543;51.734;8.744;2023-06-04T07:30:38;16.90;94.50
10980;DHT22;5543;51.734;8.744;2023-06-04T07:33:06;17.10;93.80
10980;DHT22;5543;51.734;8.744;2023-06-04T07:35:34;17.30;93.40
10980;DHT22;5543;51.734;8.744;2023-06-04T07:38:02;17.40;92.50
10980;DHT22;5543;51.734;8.744;2023-06-04T07:40:30;17.50;91.80
10980;DHT22;5543;51.734;8.744;2023-06-04T07:43:00;17.70;91.40
10980;DHT22;5543;51.734;8.744;2023-06-04T07:45:28;17.80;89.70
10980;DHT22;5543;51.734;8.744;2023-06-04T07:48:01;18.00;89.70
10980;DHT22;5543;51.734;8.744;2023-06-04T07:50:29;18.20;90.70
10980;DHT22;5543;51.734;8.744;2023-06-04T07:53:02;18.50;84.80
10980;DHT22;5543;51.734;8.744;2023-06-04T07:55:30;18.80;84.30
10980;DHT22;5543;51.734;8.744;2023-06-04T07:58:01;18.90;81.80
10980;DHT22;5543;51.734;8.744;2023-06-04T08:00:32;19.20;79.60
10980;DHT22;5543;51.734;8.744;2023-06-04T08:03:00;19.40;77.20
10980;DHT22;5543;51.734;8.744;2023-06-04T08:05:28;19.50;77.60
10980;DHT22;5543;51.734;8.744;2023-06-04T08:07:57;19.70;76.80
10980;DHT22;5543;51.734;8.744;2023-06-04T08:10:25;19.90;77.40
10980;DHT22;5543;51.734;8.744;2023-06-04T08:12:53;20.10;69.10
10980;DHT22;5543;51.734;8.744;2023-06-04T08:15:23;20.30;68.60
10980;DHT22;5543;51.734;8.744;2023-06-04T08:17:51;20.60;69.00
10980;DHT22;5543;51.734;8.744;2023-06-04T08:20:19;20.70;62.10
10980;DHT22;5543;51.734;8.744;2023-06-04T08:22:47;21.00;67.20
10980;DHT22;5543;51.734;8.744;2023-06-04T08:25:16;21.30;63.30
10980;DHT22;5543;51.734;8.744;2023-06-04T08:27:44;21.80;67.30
10980;DHT22;5543;51.734;8.744;2023-06-04T08:30:12;22.40;68.40
10980;DHT22;5543;51.734;8.744;2023-06-04T08:32:41;22.90;62.90
10980;DHT22;5543;51.734;8.744;2023-06-04T08:35:09;23.60;63.60
10980;DHT22;5543;51.734;8.744;2023-06-04T08:37:38;23.80;56.00
10980;DHT22;5543;51.734;8.744;2023-06-04T08:40:07;24.30;58.30
10980;DHT22;5543;51.734;8.744;2023-06-04T08:42:40;25.00;57.50
10980;DHT22;5543;51.734;8.744;2023-06-04T08:45:11;25.20;53.10
10980;DHT22;5543;51.734;8.744;2023-06-04T08:47:44;26.10;52.90
10980;DHT22;5543;51.734;8.744;2023-06-04T08:50:12;26.60;51.80
10980;DHT22;5543;51.734;8.744;2023-06-04T08:52:42;27.40;51.20
10980;DHT22;5543;51.734;8.744;2023-06-04T08:55:11;27.30;46.30
10980;DHT22;5543;51.734;8.744;2023-06-04T08:57:41;27.40;47.80
10980;DHT22;5543;51.734;8.744;2023-06-04T09:00:10;27.60;44.50
10980;DHT22;5543;51.734;8.744;2023-06-04T09:02:39;28.40;46.40
10980;DHT22;5543;51.734;8.744;2023-06-04T09:05:09;29.00;45.50
10980;DHT22;5543;51.734;8.744;2023-06-04T09:07:40;28.10;40.50
10980;DHT22;5543;51.734;8.744;2023-06-04T09:10:09;28.50;41.20
10980;DHT22;5543;51.734;8.744;2023-06-04T09:12:42;29.40;44.10
10980;DHT22;5543;51.734;8.744;2023-06-04T09:15:11;28.70;39.40
10980;DHT22;5543;51.734;8.744;2023-06-04T09:17:39;29.60;43.30
10980;DHT22;5543;51.734;8.744;2023-06-04T09:20:18;30.40;42.20
10980;DHT22;5543;51.734;8.744;2023-06-04T09:22:46;30.90;41.10
10980;DHT22;5543;51.734;8.744;2023-06-04T09:25:22;30.60;41.10
10980;DHT22;5543;51.734;8.744;2023-06-04T09:27:52;29.90;36.60
10980;DHT22;5543;51.734;8.744;2023-06-04T09:30:22;30.20;37.70
10980;DHT22;5543;51.734;8.744;2023-06-04T09:32:50;30.20;39.30
10980;DHT22;5543;51.734;8.744;2023-06-04T09:35:21;30.10;35.20
10980;DHT22;5543;51.734;8.744;2023-06-04T09:37:53;30.60;38.50
10980;DHT22;5543;51.734;8.744;2023-06-04T09:40:22;31.40;38.20
10980;DHT22;5543;51.734;8.744;2023-06-04T09:42:51;31.40;35.40
10980;DHT22;5543;51.734;8.744;2023-06-04T09:45:28;31.10;36.80
10980;DHT22;5543;51.734;8.744;2023-06-04T09:47:58;30.70;37.70
10980;DHT22;5543;51.734;8.744;2023-06-04T09:50:29;31.50;38.70
10980;DHT22;5543;51.734;8.744;2023-06-04T09:52:58;31.70;37.70
10980;DHT22;5543;51.734;8.744;2023-06-04T09:55:27;31.20;34.50
10980;DHT22;5543;51.734;8.744;2023-06-04T09:57:55;31.50;36.60
10980;DHT22;5543;51.734;8.744;2023-06-04T10:00:24;31.00;34.90
10980;DHT22;5543;51.734;8.744;2023-06-04T10:02:56;30.70;34.60
10980;DHT22;5543;51.734;8.744;2023-06-04T10:05:25;31.50;35.70
10980;DHT22;5543;51.734;8.744;2023-06-04T10:07:57;32.60;39.80
10980;DHT22;5543;51.734;8.744;2023-06-04T10:10:26;32.30;35.10
10980;DHT22;5543;51.734;8.744;2023-06-04T10:13:00;32.40;33.00
10980;DHT22;5543;51.734;8.744;2023-06-04T10:15:31;32.30;37.30
10980;DHT22;5543;51.734;8.744;2023-06-04T10:18:02;32.80;33.30
10980;DHT22;5543;51.734;8.744;2023-06-04T10:20:31;32.90;34.50
10980;DHT22;5543;51.734;8.744;2023-06-04T10:23:01;32.60;35.50
10980;DHT22;5543;51.734;8.744;2023-06-04T10:25:31;33.10;35.30
10980;DHT22;5543;51.734;8.744;2023-06-04T10:28:00;33.70;36.70
10980;DHT22;5543;51.734;8.744;2023-06-04T10:30:30;33.00;34.40
10980;DHT22;5543;51.734;8.744;2023-06-04T10:32:59;33.20;36.50
10980;DHT22;5543;51.734;8.744;2023-06-04T10:35:53;33.90;38.20
10980;DHT22;5543;51.734;8.744;2023-06-04T10:38:22;33.40;31.10
10980;DHT22;5543;51.734;8.744;2023-06-04T10:40:51;34.00;34.40
10980;DHT22;5543;51.734;8.744;2023-06-04T10:43:19;34.10;31.40
10980;DHT22;5543;51.734;8.744;2023-06-04T10:45:48;34.90;32.60
10980;DHT22;5543;51.734;8.744;2023-06-04T10:48:16;35.80;33.60
10980;DHT22;5543;51.734;8.744;2023-06-04T10:50:49;36.20;33.40
10980;DHT22;5543;51.734;8.744;2023-06-04T10:53:18;37.00;33.10
10980;DHT22;5543;51.734;8.744;2023-06-04T10:55:49;36.30;30.80
10980;DHT22;5543;51.734;8.744;2023-06-04T10:58:18;36.70;31.30
10980;DHT22;5543;51.734;8.744;2023-06-04T11:00:47;36.90;32.20
10980;DHT22;5543;51.734;8.744;2023-06-04T11:03:16;35.30;30.80
10980;DHT22;5543;51.734;8.744;2023-06-04T11:05:46;34.70;32.60
10980;DHT22;5543;51.734;8.744;2023-06-04T11:08:14;35.40;34.20
10980;DHT22;5543;51.734;8.744;2023-06-04T11:10:44;36.10;31.20
10980;DHT22;5543;51.734;8.744;2023-06-04T11:13:14;36.70;32.40
10980;DHT22;5543;51.734;8.744;2023-06-04T11:15:43;37.50;30.00
10980;DHT22;5543;51.734;8.744;2023-06-04T11:18:16;37.90;32.50
10980;DHT22;5543;51.734;8.744;2023-06-04T11:20:45;38.50;31.80
10980;DHT22;5543;51.734;8.744;2023-06-04T11:23:14;38.70;29.50
10980;DHT22;5543;51.734;8.744;2023-06-04T11:25:43;39.00;29.40
10980;DHT22;5543;51.734;8.744;2023-06-04T11:28:17;38.70;29.50
10980;DHT22;5543;51.734;8.744;2023-06-04T11:30:56;39.00;28.50
10980;DHT22;5543;51.734;8.744;2023-06-04T11:33:25;39.20;28.00
10980;DHT22;5543;51.734;8.744;2023-06-04T11:35:53;39.40;28.20
10980;DHT22;5543;51.734;8.744;2023-06-04T11:38:22;37.70;29.90
10980;DHT22;5543;51.734;8.744;2023-06-04T11:40:57;37.40;29.60
10980;DHT22;5543;51.734;8.744;2023-06-04T11:43:28;36.50;29.20
10980;DHT22;5543;51.734;8.744;2023-06-04T11:45:56;37.80;29.20
10980;DHT22;5543;51.734;8.744;2023-06-04T11:48:24;38.20;27.30
10980;DHT22;5543;51.734;8.744;2023-06-04T11:50:53;38.60;29.60
10980;DHT22;5543;51.734;8.744;2023-06-04T11:53:21;38.90;27.20
10980;DHT22;5543;51.734;8.744;2023-06-04T11:55:50;39.30;29.30
10980;DHT22;5543;51.734;8.744;2023-06-04T11:58:18;39.50;28.20
10980;DHT22;5543;51.734;8.744;2023-06-04T12:00:48;39.50;29.40
10980;DHT22;5543;51.734;8.744;2023-06-04T12:03:16;39.40;26.30
10980;DHT22;5543;51.734;8.744;2023-06-04T12:05:44;39.00;26.40
10980;DHT22;5543;51.734;8.744;2023-06-04T12:08:12;38.60;25.50
10980;DHT22;5543;51.734;8.744;2023-06-04T12:10:41;37.90;27.30
10980;DHT22;5543;51.734;8.744;2023-06-04T12:13:10;38.30;28.10
10980;DHT22;5543;51.734;8.744;2023-06-04T12:15:39;38.30;27.50
10980;DHT22;5543;51.734;8.744;2023-06-04T12:18:08;37.20;27.80
10980;DHT22;5543;51.734;8.744;2023-06-04T12:20:38;37.40;29.40
10980;DHT22;5543;51.734;8.744;2023-06-04T12:23:07;36.90;29.50
10980;DHT22;5543;51.734;8.744;2023-06-04T12:25:35;37.20;29.40
10980;DHT22;5543;51.734;8.744;2023-06-04T12:28:05;36.00;28.70
10980;DHT22;5543;51.734;8.744;2023-06-04T12:30:37;33.70;28.50
10980;DHT22;5543;51.734;8.744;2023-06-04T12:33:10;33.10;29.20
10980;DHT22;5543;51.734;8.744;2023-06-04T12:35:38;33.40;33.40
10980;DHT22;5543;51.734;8.744;2023-06-04T12:38:06;33.30;29.90
10980;DHT22;5543;51.734;8.744;2023-06-04T12:40:39;32.40;30.60
10980;DHT22;5543;51.734;8.744;2023-06-04T12:43:07;32.50;32.10
10980;DHT22;5543;51.734;8.744;2023-06-04T12:45:35;32.80;32.50
10980;DHT22;5543;51.734;8.744;2023-06-04T12:48:04;32.20;30.80
10980;DHT22;5543;51.734;8.744;2023-06-04T12:50:33;32.00;32.30
10980;DHT22;5543;51.734;8.744;2023-06-04T12:53:02;32.20;32.40
10980;DHT22;5543;51.734;8.744;2023-06-04T12:55:30;31.70;31.90
10980;DHT22;5543;51.734;8.744;2023-06-04T12:57:59;31.90;31.90
10980;DHT22;5543;51.734;8.744;2023-06-04T13:00:27;31.90;31.10
10980;DHT22;5543;51.734;8.744;2023-06-04T13:02:55;31.30;32.90
10980;DHT22;5543;51.734;8.744;2023-06-04T13:05:23;31.70;33.70
10980;DHT22;5543;51.734;8.744;2023-06-04T13:07:53;32.30;34.10
10980;DHT22;5543;51.734;8.744;2023-06-04T13:10:22;33.10;32.10
10980;DHT22;5543;51.734;8.744;2023-06-04T13:12:50;33.40;31.30
10980;DHT22;5543;51.734;8.744;2023-06-04T13:15:19;33.90;28.80
10980;DHT22;5543;51.734;8.744;2023-06-04T13:17:47;34.00;27.70
10980;DHT22;5543;51.734;8.744;2023-06-04T13:20:15;33.40;28.60
10980;DHT22;5543;51.734;8.744;2023-06-04T13:22:43;33.90;31.10
10980;DHT22;5543;51.734;8.744;2023-06-04T13:25:13;33.90;30.00
10980;DHT22;5543;51.734;8.744;2023-06-04T13:27:41;34.50;29.80
10980;DHT22;5543;51.734;8.744;2023-06-04T13:30:10;34.20;30.60
10980;DHT22;5543;51.734;8.744;2023-06-04T13:32:39;33.20;29.60
10980;DHT22;5543;51.734;8.744;2023-06-04T13:35:07;33.50;31.50
10980;DHT22;5543;51.734;8.744;2023-06-04T13:37:36;33.80;31.50
10980;DHT22;5543;51.734;8.744;2023-06-04T13:40:05;34.20;31.10
10980;DHT22;5543;51.734;8.744;2023-06-04T13:42:35;34.40;31.10
10980;DHT22;5543;51.734;8.744;2023-06-04T13:45:04;34.60;30.10
10980;DHT22;5543;51.734;8.744;2023-06-04T13:47:32;34.50;32.00
10980;DHT22;5543;51.734;8.744;2023-06-04T13:50:01;34.60;31.20
10980;DHT22;5543;51.734;8.744;2023-06-04T13:52:30;34.30;29.80
10980;DHT22;5543;51.734;8.744;2023-06-04T13:54:58;34.20;30.00
10980;DHT22;5543;51.734;8.744;2023-06-04T13:57:27;33.90;31.30
10980;DHT22;5543;51.734;8.744;2023-06-04T13:59:57;33.70;29.80
10980;DHT22;5543;51.734;8.744;2023-06-04T14:02:25;33.40;30.20
10980;DHT22;5543;51.734;8.744;2023-06-04T14:04:54;32.70;29.00
10980;DHT22;5543;51.734;8.744;2023-06-04T14:07:22;32.20;32.10
10980;DHT22;5543;51.734;8.744;2023-06-04T14:09:50;32.10;31.40
10980;DHT22;5543;51.734;8.744;2023-06-04T14:12:22;32.00;31.80
10980;DHT22;5543;51.734;8.744;2023-06-04T14:14:50;31.90;32.40
10980;DHT22;5543;51.734;8.744;2023-06-04T14:17:20;31.50;31.10
10980;DHT22;5543;51.734;8.744;2023-06-04T14:19:48;31.70;31.30
10980;DHT22;5543;51.734;8.744;2023-06-04T14:22:17;31.70;32.70
10980;DHT22;5543;51.734;8.744;2023-06-04T14:24:45;31.40;33.30
10980;DHT22;5543;51.734;8.744;2023-06-04T14:27:13;31.40;32.90
10980;DHT22;5543;51.734;8.744;2023-06-04T14:29:41;31.50;32.00
10980;DHT22;5543;51.734;8.744;2023-06-04T14:32:09;31.40;32.50
10980;DHT22;5543;51.734;8.744;2023-06-04T14:34:39;31.20;32.10
10980;DHT22;5543;51.734;8.744;2023-06-04T14:37:08;31.10;31.60
10980;DHT22;5543;51.734;8.744;2023-06-04T14:39:36;31.00;31.50
10980;DHT22;5543;51.734;8.744;2023-06-04T14:42:05;30.90;32.90
10980;DHT22;5543;51.734;8.744;2023-06-04T14:44:33;30.60;32.60
10980;DHT22;5543;51.734;8.744;2023-06-04T14:47:01;30.30;32.00
10980;DHT22;5543;51.734;8.744;2023-06-04T14:49:29;30.30;34.20
10980;DHT22;5543;51.734;8.744;2023-06-04T14:52:00;30.40;33.00
10980;DHT22;5543;51.734;8.744;2023-06-04T14:54:29;30.30;33.80
10980;DHT22;5543;51.734;8.744;2023-06-04T14:56:57;30.30;33.60
10980;DHT22;5543;51.734;8.744;2023-06-04T14:59:26;30.10;34.80
10980;DHT22;5543;51.734;8.744;2023-06-04T15:01:55;29.90;33.90
10980;DHT22;5543;51.734;8.744;2023-06-04T15:04:25;29.90;33.90
10980;DHT22;5543;51.734;8.744;2023-06-04T15:06:53;29.70;35.50
10980;DHT22;5543;51.734;8.744;2023-06-04T15:09:23;29.20;35.10
10980;DHT22;5543;51.734;8.744;2023-06-04T15:11:51;28.80;33.30
10980;DHT22;5543;51.734;8.744;2023-06-04T15:14:19;29.00;35.90
10980;DHT22;5543;51.734;8.744;2023-06-04T15:16:47;28.90;35.50
10980;DHT22;5543;51.734;8.744;2023-06-04T15:19:15;28.80;35.50
10980;DHT22;5543;51.734;8.744;2023-06-04T15:21:43;28.40;34.60
10980;DHT22;5543;51.734;8.744;2023-06-04T15:24:12;28.40;36.50
10980;DHT22;5543;51.734;8.744;2023-06-04T15:26:41;28.30;35.40
10980;DHT22;5543;51.734;8.744;2023-06-04T15:29:09;28.10;34.70
10980;DHT22;5543;51.734;8.744;2023-06-04T15:31:37;28.30;35.90
10980;DHT22;5543;51.734;8.744;2023-06-04T15:34:06;28.40;36.40
10980;DHT22;5543;51.734;8.744;2023-06-04T15:36:34;28.40;37.00
10980;DHT22;5543;51.734;8.744;2023-06-04T15:39:04;28.10;37.90
10980;DHT22;5543;51.734;8.744;2023-06-04T15:41:32;27.90;36.70
10980;DHT22;5543;51.734;8.744;2023-06-04T15:44:02;27.60;35.60
10980;DHT22;5543;51.734;8.744;2023-06-04T15:46:30;27.40;38.00
10980;DHT22;5543;51.734;8.744;2023-06-04T15:48:58;27.50;36.90
10980;DHT22;5543;51.734;8.744;2023-06-04T15:51:27;27.70;36.80
10980;DHT22;5543;51.734;8.744;2023-06-04T15:53:55;27.90;38.20
10980;DHT22;5543;51.734;8.744;2023-06-04T15:56:25;28.00;38.70
10980;DHT22;5543;51.734;8.744;2023-06-04T15:58:53;27.50;36.00
10980;DHT22;5543;51.734;8.744;2023-06-04T16:01:23;27.50;38.90
10980;DHT22;5543;51.734;8.744;2023-06-04T16:03:51;27.30;36.50